createdAt,value
2023-04-08T00:00:01.865Z,0.0000
2023-04-08T00:01:02.678Z,0.0596
2023-04-08T00:02:03.532Z,0.8942
2023-04-08T00:03:04.478Z,0.4168
2023-04-08T00:04:05.546Z,0.0594
2023-04-08T00:05:06.479Z,0.0593
2023-04-08T00:06:07.279Z,0.7152
2023-04-08T00:07:08.043Z,3.3401
2023-04-08T00:08:08.819Z,1.6089
2023-04-08T00:09:09.552Z,0.2983
2023-04-08T00:10:10.320Z,1.0138
2023-04-08T00:11:11.058Z,1.5509
2023-04-08T00:12:11.833Z,2.2670
2023-04-08T00:13:12.607Z,2.1472
2023-04-08T00:14:13.364Z,2.3853
2023-04-08T00:15:14.124Z,3.3996
2023-04-08T00:16:14.888Z,3.5187
2023-04-08T00:17:15.639Z,2.4468
2023-04-08T00:18:16.528Z,2.3848
2023-04-08T00:19:17.268Z,1.5475
2023-04-08T00:20:18.002Z,1.0739
2023-04-08T00:21:18.775Z,0.4175
2023-04-08T00:22:19.497Z,0.4176
2023-04-08T00:23:20.208Z,0.0597
2023-04-08T00:24:20.922Z,0.0000
2023-04-08T00:25:24.104Z,0.0000
2023-04-08T00:26:23.635Z,0.0000
2023-04-08T00:27:24.363Z,0.0000
2023-04-08T00:28:25.097Z,0.0000
2023-04-08T00:29:25.815Z,0.0597
2023-04-08T00:30:26.570Z,0.0000
2023-04-08T00:31:27.350Z,0.0000
2023-04-08T00:32:28.137Z,0.0000
2023-04-08T00:33:28.858Z,0.0000
2023-04-08T00:34:29.646Z,0.0000
2023-04-08T00:35:30.397Z,0.0000
2023-04-08T00:36:31.104Z,0.0000
2023-04-08T00:37:31.881Z,0.0000
2023-04-08T00:38:32.636Z,0.0000
2023-04-08T00:39:33.460Z,0.0000
2023-04-08T00:40:34.265Z,0.0000
2023-04-08T00:41:35.586Z,0.0000
2023-04-08T00:42:36.386Z,0.0000
2023-04-08T00:43:37.134Z,0.0000
2023-04-08T00:44:37.811Z,0.0000
2023-04-08T00:45:38.566Z,0.0000
2023-04-08T00:46:39.359Z,0.0000
2023-04-08T00:47:40.280Z,0.0000
2023-04-08T00:48:41.087Z,0.0000
2023-04-08T00:49:41.809Z,0.0000
2023-04-08T00:50:42.575Z,0.0000
2023-04-08T00:51:43.339Z,0.0000
2023-04-08T00:52:44.106Z,0.0000
2023-04-08T00:53:44.868Z,0.0000
2023-04-08T00:54:45.609Z,0.0000
2023-04-08T00:55:46.492Z,0.0000
2023-04-08T00:56:47.260Z,0.0000
2023-04-08T00:57:48.006Z,0.0000
2023-04-08T00:58:48.989Z,0.0596
2023-04-08T00:59:49.953Z,0.0000
2023-04-08T01:00:50.751Z,0.1789
2023-04-08T01:01:51.599Z,0.0000
2023-04-08T01:02:52.616Z,0.0000
2023-04-08T01:03:53.566Z,0.0000
2023-04-08T01:04:54.322Z,0.0000
2023-04-08T01:05:55.062Z,0.0000
2023-04-08T01:06:55.804Z,0.0000
2023-04-08T01:07:56.579Z,0.0000
2023-04-08T01:08:57.243Z,0.0000
2023-04-08T01:09:58.040Z,0.0000
2023-04-08T01:10:58.800Z,0.0000
2023-04-08T01:11:59.541Z,0.0000
2023-04-08T01:13:00.307Z,0.0000
2023-04-08T01:14:01.019Z,0.0000
2023-04-08T01:15:01.775Z,0.0000
2023-04-08T01:16:02.900Z,0.0000
2023-04-08T01:17:03.742Z,0.0000
2023-04-08T01:18:04.519Z,0.0000
2023-04-08T01:19:05.299Z,0.0000
2023-04-08T01:20:06.091Z,0.0000
2023-04-08T01:21:06.264Z,0.0000
2023-04-08T01:22:07.049Z,0.0000
2023-04-08T01:23:07.874Z,0.0000
2023-04-08T01:24:08.621Z,0.0000
2023-04-08T01:25:09.488Z,0.0000
2023-04-08T01:26:10.216Z,0.0000
2023-04-08T01:27:10.969Z,0.0000
2023-04-08T01:28:11.793Z,0.0000
2023-04-08T01:29:12.577Z,0.0000
2023-04-08T01:30:13.418Z,0.0000
2023-04-08T01:31:14.224Z,0.0000
2023-04-08T01:32:15.177Z,0.0000
2023-04-08T01:33:15.978Z,0.0000
2023-04-08T01:34:16.739Z,0.0000
2023-04-08T01:35:17.553Z,0.0000
2023-04-08T01:36:18.395Z,0.0000
2023-04-08T01:37:19.189Z,0.0000
2023-04-08T01:38:20.047Z,0.0000
2023-04-08T01:39:20.844Z,0.0000
2023-04-08T01:40:21.718Z,0.0000
2023-04-08T01:41:22.495Z,0.0000
2023-04-08T01:42:23.268Z,0.0000
2023-04-08T01:43:24.073Z,0.0000
2023-04-08T01:44:24.819Z,0.0000
2023-04-08T01:45:25.627Z,0.0000
2023-04-08T01:46:26.496Z,0.0000
2023-04-08T01:47:27.279Z,0.0000
2023-04-08T01:48:28.083Z,0.0000
2023-04-08T01:49:28.877Z,0.0000
2023-04-08T01:50:29.630Z,0.0000
2023-04-08T01:51:30.467Z,0.0000
2023-04-08T01:52:31.294Z,0.0000
2023-04-08T01:53:32.080Z,0.0000
2023-04-08T01:54:32.929Z,0.0000
2023-04-08T01:55:33.956Z,0.0000
2023-04-08T01:56:34.705Z,0.0000
2023-04-08T01:57:35.467Z,0.0000
2023-04-08T01:58:36.198Z,0.0000
2023-04-08T01:59:38.028Z,0.0000
2023-04-08T02:00:38.779Z,0.0000
2023-04-08T02:01:39.691Z,0.0000
2023-04-08T02:02:40.729Z,0.0000
2023-04-08T02:03:41.844Z,0.0000
2023-04-08T02:04:42.775Z,0.0000
2023-04-08T02:05:43.705Z,0.1186
2023-04-08T02:06:44.543Z,0.1788
2023-04-08T02:07:45.394Z,0.0000
2023-04-08T02:08:46.203Z,0.2380
2023-04-08T02:09:47.033Z,0.0000
2023-04-08T02:10:47.850Z,0.0000
2023-04-08T02:11:48.697Z,0.0000
2023-04-08T02:12:49.496Z,0.0000
2023-04-08T02:13:50.314Z,0.0000
2023-04-08T02:14:51.127Z,0.0000
2023-04-08T02:15:51.983Z,0.0000
2023-04-08T02:16:52.767Z,0.0000
2023-04-08T02:17:53.576Z,0.0000
2023-04-08T02:18:54.413Z,0.0000
2023-04-08T02:19:55.260Z,0.0000
2023-04-08T02:20:56.033Z,0.0000
2023-04-08T02:21:56.885Z,0.0000
2023-04-08T02:22:57.757Z,0.0000
2023-04-08T02:23:58.552Z,0.0000
2023-04-08T02:24:59.340Z,0.0000
2023-04-08T02:26:00.131Z,0.0000
2023-04-08T02:27:00.943Z,0.0000
2023-04-08T02:28:01.729Z,0.0000
2023-04-08T02:29:02.485Z,0.0000
2023-04-08T02:30:03.406Z,0.0000
2023-04-08T02:31:04.248Z,0.0000
2023-04-08T02:32:05.038Z,0.0000
2023-04-08T02:33:05.828Z,0.0000
2023-04-08T02:34:06.722Z,0.0000
2023-04-08T02:35:07.499Z,0.0000
2023-04-08T02:36:08.394Z,0.0000
2023-04-08T02:37:09.164Z,0.0000
2023-04-08T02:38:09.935Z,0.0000
2023-04-08T02:39:10.743Z,0.0000
2023-04-08T02:40:11.543Z,0.0000
2023-04-08T02:41:12.431Z,0.0000
2023-04-08T02:42:13.208Z,0.0000
2023-04-08T02:43:14.070Z,0.0000
2023-04-08T02:44:14.875Z,0.0000
2023-04-08T02:45:15.684Z,0.0000
2023-04-08T02:46:16.655Z,0.0000
2023-04-08T02:47:17.434Z,0.0000
2023-04-08T02:48:18.269Z,0.0000
2023-04-08T02:49:19.005Z,0.0000
2023-04-08T02:50:19.901Z,0.0000
2023-04-08T02:51:20.683Z,0.0000
2023-04-08T02:52:21.473Z,0.0000
2023-04-08T02:53:22.225Z,0.0000
2023-04-08T02:54:23.123Z,0.0000
2023-04-08T02:55:23.934Z,0.0000
2023-04-08T02:56:24.742Z,0.0000
2023-04-08T02:57:25.546Z,0.0000
2023-04-08T02:58:26.339Z,0.0000
2023-04-08T02:59:27.052Z,0.0000
2023-04-08T03:00:28.054Z,0.0000
2023-04-08T03:01:28.906Z,0.0000
2023-04-08T03:02:29.857Z,0.0000
2023-04-08T03:03:30.860Z,0.0000
2023-04-08T03:04:31.694Z,0.0000
2023-04-08T03:05:32.480Z,0.0000
2023-04-08T03:06:33.344Z,0.0000
2023-04-08T03:07:34.151Z,0.0000
2023-04-08T03:08:34.981Z,0.0000
2023-04-08T03:09:35.808Z,0.0000
2023-04-08T03:10:36.666Z,0.0000
2023-04-08T03:11:37.488Z,0.0000
2023-04-08T03:12:38.290Z,0.0000
2023-04-08T03:13:39.122Z,0.0000
2023-04-08T03:14:39.923Z,0.0000
2023-04-08T03:15:40.729Z,0.0000
2023-04-08T03:16:41.566Z,0.0000
2023-04-08T03:17:42.479Z,0.0000
2023-04-08T03:18:43.245Z,0.0000
2023-04-08T03:19:44.078Z,0.0000
2023-04-08T03:20:44.944Z,0.0000
2023-04-08T03:21:45.797Z,0.0000
2023-04-08T03:22:46.591Z,0.0000
2023-04-08T03:23:47.435Z,0.0000
2023-04-08T03:24:48.275Z,0.0000
2023-04-08T03:25:49.054Z,0.0000
2023-04-08T03:26:49.852Z,0.0000
2023-04-08T03:27:50.638Z,0.0000
2023-04-08T03:28:51.748Z,0.0000
2023-04-08T03:29:52.758Z,0.0000
2023-04-08T03:30:53.555Z,0.0000
2023-04-08T03:31:54.439Z,0.0000
2023-04-08T03:32:55.228Z,0.0000
2023-04-08T03:33:56.081Z,0.0000
2023-04-08T03:34:56.902Z,0.0000
2023-04-08T03:35:58.049Z,0.0000
2023-04-08T03:36:58.848Z,0.0000
2023-04-08T03:37:59.623Z,0.0000
2023-04-08T03:39:00.484Z,0.0000
2023-04-08T03:40:01.305Z,0.0000
2023-04-08T03:41:02.119Z,0.0000
2023-04-08T03:42:02.909Z,0.0000
2023-04-08T03:43:03.699Z,0.0000
2023-04-08T03:44:04.497Z,0.0000
2023-04-08T03:45:05.274Z,0.0000
2023-04-08T03:46:06.103Z,0.0000
2023-04-08T03:47:06.929Z,0.0000
2023-04-08T03:48:07.775Z,0.0000
2023-04-08T03:49:08.653Z,0.0000
2023-04-08T03:50:09.384Z,0.0000
2023-04-08T03:51:10.183Z,0.0000
2023-04-08T03:52:10.963Z,0.0596
2023-04-08T03:53:11.826Z,0.0000
2023-04-08T03:54:12.617Z,0.0000
2023-04-08T03:55:13.413Z,0.0000
2023-04-08T03:56:14.215Z,0.0000
2023-04-08T03:57:14.993Z,0.0000
2023-04-08T03:58:15.798Z,0.0000
2023-04-08T03:59:16.633Z,0.0000
2023-04-08T04:00:17.417Z,0.0000
2023-04-08T04:01:18.208Z,0.0000
2023-04-08T04:02:19.073Z,0.0000
2023-04-08T04:03:19.972Z,0.0000
2023-04-08T04:04:21.164Z,0.0000
2023-04-08T04:05:22.506Z,0.0000
2023-04-08T04:06:23.306Z,0.0000
2023-04-08T04:07:24.174Z,0.0000
2023-04-08T04:08:25.022Z,0.0000
2023-04-08T04:09:25.781Z,0.0000
2023-04-08T04:10:26.575Z,0.0000
2023-04-08T04:11:27.384Z,0.0000
2023-04-08T04:12:28.194Z,0.0000
2023-04-08T04:13:29.008Z,0.0000
2023-04-08T04:14:29.846Z,0.0000
2023-04-08T04:15:30.658Z,0.0000
2023-04-08T04:16:32.996Z,0.0000
2023-04-08T04:17:31.556Z,0.0000
2023-04-08T04:18:32.479Z,0.0000
2023-04-08T04:19:33.277Z,0.0000
2023-04-08T04:20:34.087Z,0.0000
2023-04-08T04:21:34.904Z,0.0000
2023-04-08T04:22:35.710Z,0.0000
2023-04-08T04:23:36.479Z,0.0000
2023-04-08T04:24:37.326Z,0.0000
2023-04-08T04:25:38.083Z,0.0000
2023-04-08T04:26:38.937Z,0.0000
2023-04-08T04:27:39.726Z,0.0000
2023-04-08T04:28:40.507Z,0.0000
2023-04-08T04:29:41.308Z,0.0000
2023-04-08T04:30:42.112Z,0.0000
2023-04-08T04:31:42.949Z,0.0000
2023-04-08T04:32:43.775Z,0.0000
2023-04-08T04:33:44.608Z,0.0000
2023-04-08T04:34:45.377Z,0.0000
2023-04-08T04:35:46.232Z,0.0000
2023-04-08T04:36:46.994Z,0.0000
2023-04-08T04:37:47.814Z,0.0000
2023-04-08T04:38:50.224Z,0.0000
2023-04-08T04:39:49.116Z,0.0000
2023-04-08T04:40:49.948Z,0.0000
2023-04-08T04:41:50.807Z,0.0000
2023-04-08T04:42:51.609Z,0.0000
2023-04-08T04:43:52.379Z,0.0000
2023-04-08T04:44:53.246Z,0.0000
2023-04-08T04:45:54.038Z,0.0000
2023-04-08T04:46:54.997Z,0.0000
2023-04-08T04:47:55.792Z,0.0000
2023-04-08T04:48:56.587Z,0.0000
2023-04-08T04:49:57.400Z,0.0000
2023-04-08T04:50:58.239Z,0.0000
2023-04-08T04:51:59.033Z,0.0000
2023-04-08T04:52:59.830Z,0.0596
2023-04-08T04:54:00.574Z,0.1192
2023-04-08T04:55:01.439Z,0.0000
2023-04-08T04:56:02.446Z,0.0000
2023-04-08T04:57:03.287Z,0.0000
2023-04-08T04:58:04.111Z,0.1191
2023-04-08T04:59:04.904Z,0.0000
2023-04-08T05:00:05.904Z,0.0000
2023-04-08T05:01:06.750Z,0.0000
2023-04-08T05:02:07.652Z,0.0000
2023-04-08T05:03:08.711Z,0.0000
2023-04-08T05:04:09.555Z,0.0000
2023-04-08T05:05:10.372Z,0.0000
2023-04-08T05:06:11.384Z,0.0000
2023-04-08T05:07:12.177Z,0.0000
2023-04-08T05:08:12.962Z,0.0000
2023-04-08T05:09:13.790Z,0.0000
2023-04-08T05:10:14.642Z,0.0000
2023-04-08T05:11:15.405Z,0.0000
2023-04-08T05:12:16.223Z,0.0000
2023-04-08T05:13:17.020Z,0.0000
2023-04-08T05:14:17.775Z,0.0000
2023-04-08T05:15:18.603Z,0.0000
2023-04-08T05:16:19.485Z,0.0000
2023-04-08T05:17:20.315Z,0.0000
2023-04-08T05:18:21.146Z,0.0000
2023-04-08T05:19:22.003Z,0.0000
2023-04-08T05:20:22.799Z,0.0000
2023-04-08T05:21:23.584Z,0.0000
2023-04-08T05:22:24.471Z,0.0000
2023-04-08T05:23:25.262Z,0.0000
2023-04-08T05:24:26.038Z,0.0000
2023-04-08T05:25:26.922Z,0.0000
2023-04-08T05:26:27.728Z,0.0000
2023-04-08T05:27:28.506Z,0.0000
2023-04-08T05:28:29.339Z,0.0000
2023-04-08T05:29:30.160Z,0.0000
2023-04-08T05:30:30.993Z,0.0000
2023-04-08T05:31:31.906Z,0.0000
2023-04-08T05:32:32.846Z,0.0000
2023-04-08T05:33:33.721Z,0.0000
2023-04-08T05:34:34.485Z,0.0000
2023-04-08T05:35:35.305Z,0.0000
2023-04-08T05:36:36.057Z,0.0000
2023-04-08T05:37:36.814Z,0.0000
2023-04-08T05:38:37.640Z,0.0000
2023-04-08T05:39:38.502Z,0.0000
2023-04-08T05:40:39.290Z,0.0000
2023-04-08T05:41:40.096Z,0.0000
2023-04-08T05:42:40.911Z,0.0000
2023-04-08T05:43:41.736Z,0.0000
2023-04-08T05:44:42.516Z,0.0000
2023-04-08T05:45:43.376Z,0.0000
2023-04-08T05:46:44.283Z,0.0000
2023-04-08T05:47:45.165Z,0.0000
2023-04-08T05:48:45.967Z,0.0000
2023-04-08T05:49:46.796Z,0.0000
2023-04-08T05:50:47.666Z,0.0000
2023-04-08T05:51:48.404Z,0.0000
2023-04-08T05:52:49.197Z,0.0000
2023-04-08T05:53:49.947Z,0.0000
2023-04-08T05:54:50.779Z,0.0000
2023-04-08T05:55:51.563Z,0.0000
2023-04-08T05:56:52.416Z,0.0000
2023-04-08T05:57:53.191Z,0.0000
2023-04-08T05:58:53.976Z,0.0000
2023-04-08T05:59:54.868Z,0.0000
2023-04-08T06:00:55.972Z,0.0000
2023-04-08T06:01:56.761Z,0.0000
2023-04-08T06:02:57.904Z,0.0000
2023-04-08T06:03:59.134Z,0.0000
2023-04-08T06:05:00.426Z,0.0000
2023-04-08T06:06:01.272Z,0.0000
2023-04-08T06:07:02.099Z,0.0000
2023-04-08T06:08:02.951Z,0.0000
2023-04-08T06:09:03.803Z,0.0000
2023-04-08T06:10:04.710Z,0.0596
2023-04-08T06:11:05.525Z,0.1190
2023-04-08T06:12:06.592Z,0.0000
2023-04-08T06:13:07.394Z,0.0000
2023-04-08T06:14:08.221Z,0.0000
2023-04-08T06:15:09.102Z,0.0000
2023-04-08T06:16:09.956Z,0.0000
2023-04-08T06:17:10.772Z,0.0000
2023-04-08T06:18:11.757Z,0.0000
2023-04-08T06:19:12.584Z,0.0000
2023-04-08T06:20:13.437Z,0.0000
2023-04-08T06:21:14.252Z,0.0000
2023-04-08T06:22:15.084Z,0.0000
2023-04-08T06:23:15.915Z,0.0000
2023-04-08T06:24:16.847Z,0.0000
2023-04-08T06:25:17.671Z,0.0000
2023-04-08T06:26:18.536Z,0.0000
2023-04-08T06:27:19.347Z,0.0000
2023-04-08T06:28:20.228Z,0.0000
2023-04-08T06:29:21.977Z,0.0000
2023-04-08T06:30:22.856Z,0.0000
2023-04-08T06:31:23.700Z,1.3091
2023-04-08T06:32:24.608Z,1.5474
2023-04-08T06:33:25.483Z,0.0000
2023-04-08T06:34:26.352Z,2.2048
2023-04-08T06:35:27.970Z,1.1904
2023-04-08T06:36:29.210Z,0.5259
2023-04-08T06:37:30.048Z,0.4167
2023-04-08T06:38:30.922Z,0.7739
2023-04-08T06:39:31.746Z,0.0595
2023-04-08T06:40:32.611Z,2.7387
2023-04-08T06:41:33.486Z,3.1557
2023-04-08T06:42:34.294Z,1.8453
2023-04-08T06:43:35.220Z,1.8463
2023-04-08T06:44:36.305Z,1.7236
2023-04-08T06:45:37.155Z,1.9582
2023-04-08T06:46:38.016Z,3.1548
2023-04-08T06:47:38.921Z,1.8449
2023-04-08T06:48:39.792Z,0.2380
2023-04-08T06:49:40.628Z,0.0000
2023-04-08T06:50:41.495Z,0.0000
2023-04-08T06:51:42.347Z,0.0595
2023-04-08T06:52:43.179Z,0.0000
2023-04-08T06:53:44.045Z,0.0000
2023-04-08T06:54:44.889Z,0.0000
2023-04-08T06:55:45.685Z,1.2507
2023-04-08T06:56:46.544Z,0.0596
2023-04-08T06:57:47.421Z,0.0000
2023-04-08T06:58:48.274Z,0.0000
2023-04-08T06:59:49.206Z,0.7127
2023-04-08T07:00:50.070Z,0.0596
2023-04-08T07:01:51.347Z,0.0000
2023-04-08T07:02:52.519Z,0.0589
2023-04-08T07:03:53.492Z,0.0000
2023-04-08T07:04:54.437Z,0.0000
2023-04-08T07:05:55.239Z,0.7732
2023-04-08T07:06:56.093Z,0.0000
2023-04-08T07:07:56.961Z,0.4764
2023-04-08T07:08:57.798Z,0.0000
2023-04-08T07:09:58.638Z,0.1191
2023-04-08T07:10:59.607Z,0.0000
2023-04-08T07:12:00.465Z,0.0000
2023-04-08T07:13:01.351Z,0.0000
2023-04-08T07:14:02.157Z,1.7871
2023-04-08T07:15:03.021Z,0.1191
2023-04-08T07:16:03.803Z,0.0000
2023-04-08T07:17:04.749Z,0.8332
2023-04-08T07:18:05.671Z,0.4757
2023-04-08T07:19:06.512Z,0.0000
2023-04-08T07:20:07.367Z,0.0000
2023-04-08T07:21:08.195Z,0.0000
2023-04-08T07:22:09.035Z,0.0000
2023-04-08T07:23:09.859Z,0.0000
2023-04-08T07:24:10.738Z,0.0595
2023-04-08T07:25:11.738Z,0.5955
2023-04-08T07:26:12.618Z,0.0594
2023-04-08T07:27:13.434Z,0.0000
2023-04-08T07:28:14.265Z,0.1785
2023-04-08T07:29:15.114Z,0.8336
2023-04-08T07:30:15.958Z,0.0595
2023-04-08T07:31:16.898Z,0.0595
2023-04-08T07:32:17.719Z,0.4756
2023-04-08T07:33:18.576Z,0.4165
2023-04-08T07:34:19.399Z,0.0000
2023-04-08T07:35:20.515Z,0.2975
2023-04-08T07:36:21.392Z,0.7709
2023-04-08T07:37:22.246Z,0.0595
2023-04-08T07:38:23.079Z,0.0000
2023-04-08T07:39:23.954Z,0.0000
2023-04-08T07:40:24.887Z,0.0000
2023-04-08T07:41:25.876Z,0.0000
2023-04-08T07:42:26.783Z,0.0595
2023-04-08T07:43:27.660Z,1.4854
2023-04-08T07:44:28.569Z,2.0234
2023-04-08T07:45:29.412Z,1.5470
2023-04-08T07:46:30.306Z,0.1786
2023-04-08T07:47:31.112Z,0.0000
2023-04-08T07:48:31.941Z,0.2977
2023-04-08T07:49:32.769Z,1.0124
2023-04-08T07:50:33.558Z,0.0596
2023-04-08T07:51:34.401Z,0.0000
2023-04-08T07:52:35.230Z,0.0000
2023-04-08T07:53:36.073Z,0.0000
2023-04-08T07:54:36.894Z,0.0000
2023-04-08T07:55:37.734Z,0.0000
2023-04-08T07:56:38.582Z,0.0000
2023-04-08T07:57:39.462Z,0.0000
2023-04-08T07:58:40.490Z,0.0000
2023-04-08T07:59:41.396Z,0.0000
2023-04-08T08:00:42.243Z,0.0000
2023-04-08T08:01:43.203Z,0.0000
2023-04-08T08:02:44.055Z,0.0000
2023-04-08T08:03:45.342Z,0.0000
2023-04-08T08:04:46.652Z,0.0000
2023-04-08T08:05:47.510Z,0.0000
2023-04-08T08:06:48.422Z,0.0000
2023-04-08T08:07:49.255Z,0.0000
2023-04-08T08:08:50.077Z,0.0000
2023-04-08T08:09:50.889Z,0.0000
2023-04-08T08:10:51.732Z,0.0000
2023-04-08T08:11:52.574Z,0.0000
2023-04-08T08:12:53.442Z,0.0000
2023-04-08T08:13:54.254Z,0.0000
2023-04-08T08:14:55.111Z,0.0000
2023-04-08T08:15:56.041Z,0.0000
2023-04-08T08:16:57.087Z,0.0000
2023-04-08T08:17:57.943Z,0.0000
2023-04-08T08:18:58.724Z,0.0000
2023-04-08T08:19:59.649Z,0.0000
2023-04-08T08:21:00.465Z,0.0000
2023-04-08T08:22:01.345Z,0.0595
2023-04-08T08:23:02.180Z,0.0000
2023-04-08T08:24:03.012Z,0.0000
2023-04-08T08:25:03.875Z,0.0000
2023-04-08T08:26:04.723Z,0.0000
2023-04-08T08:27:05.522Z,0.2973
2023-04-08T08:28:06.331Z,0.1787
2023-04-08T08:29:07.369Z,0.0000
2023-04-08T08:30:08.180Z,0.0000
2023-04-08T08:31:09.058Z,0.0000
2023-04-08T08:32:09.952Z,0.0000
2023-04-08T08:33:10.866Z,0.0000
2023-04-08T08:34:11.765Z,0.0000
2023-04-08T08:35:12.638Z,0.0000
2023-04-08T08:36:13.427Z,1.0129
2023-04-08T08:37:14.324Z,1.1289
2023-04-08T08:38:15.164Z,0.0000
2023-04-08T08:39:15.984Z,0.0595
2023-04-08T08:40:16.804Z,0.0000
2023-04-08T08:41:17.604Z,0.0000
2023-04-08T08:42:18.464Z,0.0000
2023-04-08T08:43:19.313Z,0.0594
2023-04-08T08:44:20.121Z,1.1312
2023-04-08T08:45:20.903Z,5.0010
2023-04-08T08:46:21.862Z,2.2621
2023-04-08T08:47:22.697Z,0.5943
2023-04-08T08:48:23.468Z,0.0595
2023-04-08T08:49:24.250Z,0.4169
2023-04-08T08:50:25.039Z,0.0596
2023-04-08T08:51:25.848Z,0.0595
2023-04-08T08:52:26.653Z,0.0595
2023-04-08T08:53:27.472Z,0.2976
2023-04-08T08:54:28.326Z,0.0000
2023-04-08T08:55:50.339Z,0.4747
2023-04-08T08:56:30.990Z,0.0000
2023-04-08T08:57:31.909Z,0.0000
2023-04-08T08:58:32.699Z,0.0000
2023-04-08T08:59:33.491Z,0.0000
2023-04-08T09:00:34.847Z,0.0000
2023-04-08T09:01:36.070Z,1.5905
2023-04-08T09:02:37.041Z,2.0191
2023-04-08T09:03:38.101Z,1.6024
2023-04-08T09:04:39.552Z,0.0000
2023-04-08T09:05:40.970Z,0.3532
2023-04-08T09:06:41.861Z,0.0000
2023-04-08T09:07:42.672Z,0.0000
2023-04-08T09:08:43.484Z,0.0595
2023-04-08T09:09:44.266Z,0.0000
2023-04-08T09:10:45.109Z,0.0000
2023-04-08T09:11:45.957Z,0.0000
2023-04-08T09:12:46.858Z,0.0000
2023-04-08T09:13:47.812Z,0.0000
2023-04-08T09:14:48.676Z,0.1187
2023-04-08T09:15:49.597Z,0.0000
2023-04-08T09:16:50.480Z,0.0000
2023-04-08T09:17:51.307Z,0.7143
2023-04-08T09:18:52.078Z,0.0595
2023-04-08T09:19:52.933Z,0.0000
2023-04-08T09:20:53.717Z,0.0000
2023-04-08T09:21:54.560Z,0.0595
2023-04-08T09:22:55.377Z,1.1903
2023-04-08T09:23:56.270Z,0.0595
2023-04-08T09:24:57.013Z,0.1786
2023-04-08T09:25:57.840Z,0.1191
2023-04-08T09:26:58.645Z,1.1311
2023-04-08T09:27:59.458Z,0.5951
2023-04-08T09:29:03.975Z,0.0000
2023-04-08T09:30:01.929Z,0.0000
2023-04-08T09:31:02.692Z,0.0000
2023-04-08T09:32:03.625Z,0.0000
2023-04-08T09:33:04.681Z,0.0000
2023-04-08T09:34:05.507Z,0.0000
2023-04-08T09:35:07.057Z,0.0000
2023-04-08T09:36:08.134Z,0.0000
2023-04-08T09:37:08.902Z,0.0000
2023-04-08T09:38:09.705Z,0.0000
2023-04-08T09:39:10.650Z,0.0000
2023-04-08T09:40:12.594Z,0.0000
2023-04-08T09:41:12.267Z,0.0000
2023-04-08T09:42:13.080Z,0.0000
2023-04-08T09:43:13.891Z,0.0000
2023-04-08T09:44:14.704Z,0.0000
2023-04-08T09:45:15.470Z,0.0000
2023-04-08T09:46:16.421Z,0.0000
2023-04-08T09:47:17.303Z,0.0000
2023-04-08T09:48:18.072Z,0.0000
2023-04-08T09:49:18.880Z,0.0000
2023-04-08T09:50:19.680Z,2.4410
2023-04-08T09:51:20.530Z,3.2131
2023-04-08T09:52:21.348Z,2.2612
2023-04-08T09:53:23.289Z,5.7159
2023-04-08T09:54:24.441Z,5.2301
2023-04-08T09:55:25.317Z,3.2131
2023-04-08T09:56:26.227Z,2.0226
2023-04-08T09:57:27.056Z,1.4264
2023-04-08T09:58:27.877Z,0.8335
2023-04-08T09:59:28.761Z,0.2379
2023-04-08T10:00:29.710Z,0.0594
2023-04-08T10:01:30.613Z,0.0595
2023-04-08T10:02:31.634Z,1.6049
2023-04-08T10:03:32.760Z,0.2961
2023-04-08T10:04:33.785Z,0.1185
2023-04-08T10:05:34.620Z,1.6062
2023-04-08T10:06:35.432Z,2.1426
2023-04-08T10:07:36.250Z,2.5003
2023-04-08T10:08:37.135Z,0.6545
2023-04-08T10:09:37.884Z,0.4166
2023-04-08T10:10:38.716Z,1.4889
2023-04-08T10:11:39.535Z,0.5952
2023-04-08T10:12:40.342Z,0.5359
2023-04-08T10:13:41.164Z,1.4293
2023-04-08T10:14:42.032Z,0.0000
2023-04-08T10:15:42.823Z,0.0000
2023-04-08T10:16:43.664Z,0.0000
2023-04-08T10:17:45.808Z,0.0000
2023-04-08T10:18:46.618Z,0.0000
2023-04-08T10:19:47.605Z,0.0000
2023-04-08T10:20:48.611Z,0.0000
2023-04-08T10:21:49.464Z,0.0595
2023-04-08T10:22:50.335Z,0.0000
2023-04-08T10:23:51.244Z,0.2971
2023-04-08T10:24:52.028Z,0.2378
2023-04-08T10:25:52.839Z,0.0000
2023-04-08T10:26:53.643Z,0.0000
2023-04-08T10:27:54.489Z,0.3571
2023-04-08T10:28:55.325Z,1.4278
2023-04-08T10:29:56.141Z,3.1547
2023-04-08T10:30:56.952Z,3.0931
2023-04-08T10:31:57.797Z,2.6207
2023-04-08T10:32:58.706Z,1.9612
2023-04-08T10:33:59.511Z,0.0000
2023-04-08T10:35:00.329Z,0.2381
2023-04-08T10:36:01.152Z,0.2977
2023-04-08T10:37:02.042Z,0.0000
2023-04-08T10:38:03.040Z,0.0000
2023-04-08T10:39:03.883Z,0.0000
2023-04-08T10:40:04.730Z,0.0000
2023-04-08T10:41:05.596Z,0.2380
2023-04-08T10:42:06.480Z,0.0594
2023-04-08T10:43:07.355Z,0.0000
2023-04-08T10:44:08.223Z,0.3566
2023-04-08T10:45:09.070Z,0.0595
2023-04-08T10:46:10.002Z,0.1189
2023-04-08T10:47:10.848Z,0.0000
2023-04-08T10:48:11.717Z,0.2380
2023-04-08T10:49:12.568Z,0.2973
2023-04-08T10:50:13.498Z,0.0000
2023-04-08T10:51:14.430Z,1.3664
2023-04-08T10:52:15.288Z,0.4751
2023-04-08T10:53:16.124Z,0.0595
2023-04-08T10:54:17.025Z,0.1783
2023-04-08T10:55:17.851Z,0.1785
2023-04-08T10:56:18.705Z,0.7734
2023-04-08T10:57:19.520Z,2.6180
2023-04-08T10:58:20.388Z,1.1897
2023-04-08T10:59:21.260Z,2.7945
2023-04-08T11:00:22.093Z,3.0344
2023-04-08T11:01:23.146Z,1.5468
2023-04-08T11:02:24.168Z,1.7765
2023-04-08T11:03:25.232Z,2.1372
2023-04-08T11:04:26.354Z,3.7885
2023-04-08T11:05:27.254Z,1.9573
2023-04-08T11:06:28.173Z,0.0000
2023-04-08T11:07:29.047Z,0.0000
2023-04-08T11:08:29.958Z,0.0000
2023-04-08T11:09:30.859Z,0.0000
2023-04-08T11:10:31.696Z,1.3086
2023-04-08T11:11:32.525Z,0.1190
2023-04-08T11:12:33.365Z,0.3569
2023-04-08T11:13:34.296Z,0.0594
2023-04-08T11:14:35.112Z,0.0000
2023-04-08T11:15:35.973Z,0.0000
2023-04-08T11:16:36.983Z,0.1189
2023-04-08T11:17:37.857Z,0.0000
2023-04-08T11:18:38.752Z,0.0000
2023-04-08T11:19:39.560Z,0.0000
2023-04-08T11:20:40.383Z,0.0000
2023-04-08T11:21:41.200Z,0.0000
2023-04-08T11:22:42.014Z,0.0000
2023-04-08T11:23:42.849Z,0.0000
2023-04-08T11:24:43.614Z,0.0000
2023-04-08T11:25:44.632Z,0.5950
2023-04-08T11:26:45.455Z,0.0000
2023-04-08T11:27:46.319Z,0.0000
2023-04-08T11:28:47.153Z,0.0000
2023-04-08T11:29:47.934Z,0.0000
2023-04-08T11:30:48.714Z,0.0000
2023-04-08T11:31:49.549Z,0.0000
2023-04-08T11:32:50.456Z,0.0595
2023-04-08T11:33:51.591Z,0.8315
2023-04-08T11:34:52.741Z,0.0589
2023-04-08T11:35:53.518Z,0.1188
2023-04-08T11:36:54.380Z,0.0595
2023-04-08T11:37:55.207Z,0.0000
2023-04-08T11:38:56.287Z,0.1188
2023-04-08T11:39:57.112Z,0.0000
2023-04-08T11:40:57.972Z,0.0000
2023-04-08T11:41:58.763Z,0.0000
2023-04-08T11:42:59.631Z,0.0000
2023-04-08T11:44:00.516Z,0.0000
2023-04-08T11:45:01.407Z,0.0000
2023-04-08T11:46:02.257Z,0.0000
2023-04-08T11:47:03.100Z,0.0000
2023-04-08T11:48:04.903Z,0.0000
2023-04-08T11:49:05.792Z,0.0000
2023-04-08T11:50:06.641Z,0.0000
2023-04-08T11:51:07.442Z,0.0000
2023-04-08T11:52:08.209Z,0.0000
2023-04-08T11:53:09.008Z,0.0000
2023-04-08T11:54:09.839Z,0.0000
2023-04-08T11:55:10.613Z,0.0000
2023-04-08T11:56:11.419Z,0.0000
2023-04-08T11:57:12.208Z,0.1190
2023-04-08T11:58:13.040Z,0.0000
2023-04-08T11:59:13.870Z,0.0000
2023-04-08T12:00:14.730Z,0.2379
2023-04-08T12:01:15.477Z,0.0000
2023-04-08T12:02:16.374Z,0.1190
2023-04-08T12:03:17.329Z,0.0594
2023-04-08T12:04:18.252Z,0.0000
2023-04-08T12:05:19.076Z,0.0000
2023-04-08T12:06:19.870Z,0.0000
2023-04-08T12:07:20.704Z,0.5355
2023-04-08T12:08:21.616Z,0.2970
2023-04-08T12:09:22.461Z,0.0594
2023-04-08T12:10:23.322Z,0.3567
2023-04-08T12:11:24.107Z,0.0000
2023-04-08T12:12:25.041Z,0.0000
2023-04-08T12:13:26.054Z,0.0000
2023-04-08T12:14:28.388Z,0.0000
2023-04-08T12:15:27.786Z,0.0593
2023-04-08T12:16:28.665Z,0.0000
2023-04-08T12:17:29.641Z,0.0000
2023-04-08T12:18:30.434Z,0.0000
2023-04-08T12:19:33.534Z,0.0000
2023-04-08T12:20:32.467Z,0.0592
2023-04-08T12:21:33.277Z,0.0000
2023-04-08T12:22:34.120Z,0.7740
2023-04-08T12:23:35.149Z,0.4742
2023-04-08T12:24:35.917Z,1.9033
2023-04-08T12:25:36.701Z,1.3094
2023-04-08T12:26:37.585Z,2.5584
2023-04-08T12:27:38.448Z,2.2596
2023-04-08T12:28:39.348Z,0.6534
2023-04-08T12:29:40.133Z,0.1190
2023-04-08T12:30:41.019Z,0.1189
2023-04-08T12:31:41.887Z,0.1188
2023-04-08T12:32:42.750Z,0.1784
2023-04-08T12:33:43.692Z,0.0000
2023-04-08T12:34:44.579Z,0.0595
2023-04-08T12:35:45.524Z,0.0594
2023-04-08T12:36:46.387Z,0.1784
2023-04-08T12:37:47.265Z,1.6048
2023-04-08T12:38:48.163Z,2.2009